sensor_id;sensor_type;location;lat;lon;timestamp;pressure;altitude;pressure_sealevel;temperature;humidity
61786;BME280;47692;53.714;11.372;2023-02-10T00:03:44;102517.03;;;0.91;100.00
61786;BME280;47692;53.714;11.372;2023-02-10T00:06:10;102516.34;;;0.95;100.00
61786;BME280;47692;53.714;11.372;2023-02-10T00:08:36;102514.59;;;0.94;100.00
61786;BME280;47692;53.714;11.372;2023-02-10T00:11:04;102504.59;;;1.01;100.00
61786;BME280;47692;53.714;11.372;2023-02-10T00:13:30;102506.69;;;0.90;100.00
61786;BME280;47692;53.714;11.372;2023-02-10T00:16:00;102510.00;;;0.87;100.00
61786;BME280;47692;53.714;11.372;2023-02-10T00:18:26;102505.38;;;0.80;100.00
61786;BME280;47692;53.714;11.372;2023-02-10T00:20:51;102503.50;;;0.76;100.00
61786;BME280;47692;53.714;11.372;2023-02-10T00:23:17;102504.94;;;0.71;100.00
61786;BME280;47692;53.714;11.372;2023-02-10T00:25:42;102514.47;;;0.73;100.00
61786;BME280;47692;53.714;11.372;2023-02-10T00:28:08;102518.63;;;0.70;100.00
61786;BME280;47692;53.714;11.372;2023-02-10T00:30:33;102521.09;;;0.68;100.00
61786;BME280;47692;53.714;11.372;2023-02-10T00:32:59;102511.56;;;0.66;100.00
61786;BME280;47692;53.714;11.372;2023-02-10T00:35:24;102512.38;;;0.64;100.00
61786;BME280;47692;53.714;11.372;2023-02-10T00:37:50;102514.13;;;0.66;100.00
61786;BME280;47692;53.714;11.372;2023-02-10T00:40:15;102518.41;;;0.65;100.00
61786;BME280;47692;53.714;11.372;2023-02-10T00:42:41;102502.81;;;0.62;100.00
61786;BME280;47692;53.714;11.372;2023-02-10T00:45:06;102507.97;;;0.62;100.00
61786;BME280;47692;53.714;11.372;2023-02-10T00:47:32;102517.66;;;0.68;100.00
61786;BME280;47692;53.714;11.372;2023-02-10T00:49:57;102516.56;;;0.62;100.00
61786;BME280;47692;53.714;11.372;2023-02-10T00:52:23;102512.38;;;0.64;100.00
61786;BME280;47692;53.714;11.372;2023-02-10T00:54:48;102516.69;;;0.66;100.00
61786;BME280;47692;53.714;11.372;2023-02-10T00:57:14;102515.38;;;0.74;100.00
61786;BME280;47692;53.714;11.372;2023-02-10T00:59:39;102515.38;;;0.74;100.00
61786;BME280;47692;53.714;11.372;2023-02-10T01:02:04;102515.66;;;0.80;100.00
61786;BME280;47692;53.714;11.372;2023-02-10T01:04:30;102512.41;;;0.84;100.00
61786;BME280;47692;53.714;11.372;2023-02-10T01:06:55;102519.31;;;0.85;100.00
61786;BME280;47692;53.714;11.372;2023-02-10T01:09:21;102517.44;;;0.81;100.00
61786;BME280;47692;53.714;11.372;2023-02-10T01:11:46;102519.16;;;0.82;100.00
61786;BME280;47692;53.714;11.372;2023-02-10T01:14:11;102510.59;;;0.82;100.00
61786;BME280;47692;53.714;11.372;2023-02-10T01:16:37;102512.19;;;0.79;100.00
61786;BME280;47692;53.714;11.372;2023-02-10T01:19:02;102515.66;;;0.80;100.00
61786;BME280;47692;53.714;11.372;2023-02-10T01:21:28;102509.63;;;0.79;100.00
61786;BME280;47692;53.714;11.372;2023-02-10T01:23:55;102510.66;;;0.83;100.00
61786;BME280;47692;53.714;11.372;2023-02-10T01:26:20;102510.38;;;0.77;100.00
61786;BME280;47692;53.714;11.372;2023-02-10T01:28:45;102512.00;;;0.75;100.00
61786;BME280;47692;53.714;11.372;2023-02-10T01:31:16;102518.63;;;0.70;100.00
61786;BME280;47692;53.714;11.372;2023-02-10T01:33:42;102508.19;;;0.67;100.00
61786;BME280;47692;53.714;11.372;2023-02-10T01:36:11;102509.50;;;0.58;100.00
61786;BME280;47692;53.714;11.372;2023-02-10T01:38:41;102517.31;;;0.60;100.00
61786;BME280;47692;53.714;11.372;2023-02-10T01:41:07;102516.34;;;0.58;100.00
61786;BME280;47692;53.714;11.372;2023-02-10T01:43:55;102508.75;;;0.61;100.00
61786;BME280;47692;53.714;11.372;2023-02-10T01:46:20;102518.19;;;0.60;100.00
61786;BME280;47692;53.714;11.372;2023-02-10T01:48:46;102511.94;;;0.55;100.00
61786;BME280;47692;53.714;11.372;2023-02-10T01:51:12;102511.19;;;0.58;100.00
61786;BME280;47692;53.714;11.372;2023-02-10T01:53:39;102506.81;;;0.55;100.00
61786;BME280;47692;53.714;11.372;2023-02-10T01:56:05;102516.13;;;0.53;100.00
61786;BME280;47692;53.714;11.372;2023-02-10T01:58:32;102510.97;;;0.53;100.00
61786;BME280;47692;53.714;11.372;2023-02-10T02:00:59;102496.53;;;0.55;100.00
61786;BME280;47692;53.714;11.372;2023-02-10T02:03:24;102507.78;;;0.57;100.00
61786;BME280;47692;53.714;11.372;2023-02-10T02:05:51;102502.75;;;0.60;100.00
61786;BME280;47692;53.714;11.372;2023-02-10T02:08:24;102501.00;;;0.59;100.00
61786;BME280;47692;53.714;11.372;2023-02-10T02:11:07;102497.03;;;0.66;100.00
61786;BME280;47692;53.714;11.372;2023-02-10T02:18:47;102493.63;;;0.67;100.00
61786;BME280;47692;53.714;11.372;2023-02-10T02:21:52;102497.78;;;0.63;100.00
61786;BME280;47692;53.714;11.372;2023-02-10T02:27:37;102510.69;;;0.65;100.00
61786;BME280;47692;53.714;11.372;2023-02-10T02:36:09;102513.31;;;0.67;100.00
61786;BME280;47692;53.714;11.372;2023-02-10T02:38:38;102517.00;;;0.72;100.00
61786;BME280;47692;53.714;11.372;2023-02-10T02:41:04;102509.44;;;0.75;100.00
61786;BME280;47692;53.714;11.372;2023-02-10T02:43:29;102508.88;;;0.82;100.00
61786;BME280;47692;53.714;11.372;2023-02-10T02:54:11;102517.84;;;0.90;100.00
61786;BME280;47692;53.714;11.372;2023-02-10T02:59:32;102524.06;;;0.95;100.00
61786;BME280;47692;53.714;11.372;2023-02-10T03:02:01;102520.56;;;0.93;100.00
61786;BME280;47692;53.714;11.372;2023-02-10T03:04:31;102531.03;;;0.98;100.00
61786;BME280;47692;53.714;11.372;2023-02-10T03:06:59;102522.53;;;0.99;100.00
61786;BME280;47692;53.714;11.372;2023-02-10T03:09:25;102523.56;;;1.03;100.00
61786;BME280;47692;53.714;11.372;2023-02-10T03:11:51;102528.84;;;1.06;100.00
61786;BME280;47692;53.714;11.372;2023-02-10T03:14:16;102525.59;;;1.10;100.00
61786;BME280;47692;53.714;11.372;2023-02-10T03:16:41;102534.91;;;1.08;100.00
61786;BME280;47692;53.714;11.372;2023-02-10T03:19:07;102530.97;;;1.15;100.00
61786;BME280;47692;53.714;11.372;2023-02-10T03:21:32;102530.88;;;1.13;100.00
61786;BME280;47692;53.714;11.372;2023-02-10T03:23:57;102533.66;;;1.18;100.00
61786;BME280;47692;53.714;11.372;2023-02-10T03:26:23;102532.78;;;1.17;100.00
61786;BME280;47692;53.714;11.372;2023-02-10T03:28:48;102532.78;;;1.17;100.00
61786;BME280;47692;53.714;11.372;2023-02-10T03:31:14;102529.41;;;1.18;100.00
61786;BME280;47692;53.714;11.372;2023-02-10T03:33:39;102532.03;;;1.20;100.00
61786;BME280;47692;53.714;11.372;2023-02-10T03:36:04;102519.81;;;1.16;100.00
61786;BME280;47692;53.714;11.372;2023-02-10T03:38:30;102524.16;;;1.17;100.00
61786;BME280;47692;53.714;11.372;2023-02-10T03:40:55;102518.22;;;1.18;100.00
61786;BME280;47692;53.714;11.372;2023-02-10T03:43:21;102513.06;;;1.18;100.00
61786;BME280;47692;53.714;11.372;2023-02-10T03:45:47;102523.31;;;1.16;100.00
61786;BME280;47692;53.714;11.372;2023-02-10T03:48:13;102522.50;;;1.17;100.00
61786;BME280;47692;53.714;11.372;2023-02-10T03:50:38;102521.47;;;1.13;100.00
61786;BME280;47692;53.714;11.372;2023-02-10T03:53:04;102523.25;;;1.15;100.00
61786;BME280;47692;53.714;11.372;2023-02-10T03:55:30;102520.72;;;1.16;100.00
61786;BME280;47692;53.714;11.372;2023-02-10T03:57:56;102517.19;;;1.14;100.00
61786;BME280;47692;53.714;11.372;2023-02-10T04:00:21;102518.97;;;1.15;100.00
61786;BME280;47692;53.714;11.372;2023-02-10T04:02:47;102527.47;;;1.14;100.00
61786;BME280;47692;53.714;11.372;2023-02-10T04:05:12;102515.69;;;1.19;100.00
61786;BME280;47692;53.714;11.372;2023-02-10T04:07:37;102527.75;;;1.20;100.00
61786;BME280;47692;53.714;11.372;2023-02-10T04:10:04;102534.56;;;1.18;100.00
61786;BME280;47692;53.714;11.372;2023-02-10T04:12:29;102541.44;;;1.19;100.00
61786;BME280;47692;53.714;11.372;2023-02-10T04:14:55;102546.72;;;1.22;100.00
61786;BME280;47692;53.714;11.372;2023-02-10T04:17:20;102544.22;;;1.24;100.00
61786;BME280;47692;53.714;11.372;2023-02-10T04:19:45;102555.25;;;1.21;100.00
61786;BME280;47692;53.714;11.372;2023-02-10T04:22:10;102555.25;;;1.21;100.00
61786;BME280;47692;53.714;11.372;2023-02-10T04:24:36;102555.03;;;1.17;100.00
61786;BME280;47692;53.714;11.372;2023-02-10T04:27:01;102549.84;;;1.15;100.00
61786;BME280;47692;53.714;11.372;2023-02-10T04:29:26;102558.78;;;1.23;100.00
61786;BME280;47692;53.714;11.372;2023-02-10T04:31:52;102554.19;;;1.16;100.00
61786;BME280;47692;53.714;11.372;2023-02-10T04:34:17;102548.06;;;1.14;100.00
61786;BME280;47692;53.714;11.372;2023-02-10T04:36:42;102536.91;;;1.13;100.00
61786;BME280;47692;53.714;11.372;2023-02-10T04:39:07;102542.13;;;1.15;100.00
61786;BME280;47692;53.714;11.372;2023-02-10T04:41:33;102537.94;;;1.17;100.00
61786;BME280;47692;53.714;11.372;2023-02-10T04:43:58;102540.28;;;1.12;100.00
61786;BME280;47692;53.714;11.372;2023-02-10T04:46:23;102550.63;;;1.14;100.00
61786;BME280;47692;53.714;11.372;2023-02-10T04:48:49;102558.41;;;1.16;100.00
61786;BME280;47692;53.714;11.372;2023-02-10T04:51:14;102562.69;;;1.15;100.00
61786;BME280;47692;53.714;11.372;2023-02-10T04:53:40;102568.13;;;1.21;100.00
61786;BME280;47692;53.714;11.372;2023-02-10T04:56:06;102568.81;;;1.17;100.00
61786;BME280;47692;53.714;11.372;2023-02-10T04:58:32;102564.69;;;1.21;100.00
61786;BME280;47692;53.714;11.372;2023-02-10T05:00:57;102550.78;;;1.17;100.00
61786;BME280;47692;53.714;11.372;2023-02-10T05:03:23;102548.22;;;1.17;100.00
61786;BME280;47692;53.714;11.372;2023-02-10T05:05:49;102552.47;;;1.17;100.00
61786;BME280;47692;53.714;11.372;2023-02-10T05:08:17;102547.78;;;1.08;100.00
61786;BME280;47692;53.714;11.372;2023-02-10T05:10:46;102549.56;;;1.09;100.00
61786;BME280;47692;53.714;11.372;2023-02-10T05:13:11;102554.69;;;1.09;100.00
61786;BME280;47692;53.714;11.372;2023-02-10T05:15:37;102556.75;;;1.16;100.00
61786;BME280;47692;53.714;11.372;2023-02-10T05:18:02;102564.25;;;1.11;100.00
61786;BME280;47692;53.714;11.372;2023-02-10T05:20:27;102560.00;;;1.12;100.00
61786;BME280;47692;53.714;11.372;2023-02-10T05:22:53;102565.00;;;1.09;100.00
61786;BME280;47692;53.714;11.372;2023-02-10T05:25:18;102560.13;;;1.15;100.00
61786;BME280;47692;53.714;11.372;2023-02-10T05:27:43;102561.88;;;1.16;100.00
61786;BME280;47692;53.714;11.372;2023-02-10T05:30:10;102576.59;;;1.19;100.00
61786;BME280;47692;53.714;11.372;2023-02-10T05:32:38;102578.41;;;1.21;100.00
61786;BME280;47692;53.714;11.372;2023-02-10T05:35:03;102583.63;;;1.23;100.00
61786;BME280;47692;53.714;11.372;2023-02-10T05:37:29;102591.44;;;1.24;100.00
61786;BME280;47692;53.714;11.372;2023-02-10T05:39:54;102586.56;;;1.31;100.00
61786;BME280;47692;53.714;11.372;2023-02-10T05:42:19;102590.69;;;1.27;100.00
61786;BME280;47692;53.714;11.372;2023-02-10T05:44:45;102584.00;;;1.31;100.00
61786;BME280;47692;53.714;11.372;2023-02-10T05:47:10;102579.66;;;1.29;100.00
61786;BME280;47692;53.714;11.372;2023-02-10T05:49:35;102590.06;;;1.33;100.00
61786;BME280;47692;53.714;11.372;2023-02-10T05:52:00;102602.13;;;1.34;100.00
61786;BME280;47692;53.714;11.372;2023-02-10T05:54:26;102591.16;;;1.38;100.00
61786;BME280;47692;53.714;11.372;2023-02-10T05:56:51;102591.97;;;1.37;100.00
61786;BME280;47692;53.714;11.372;2023-02-10T05:59:17;102585.09;;;1.36;100.00
61786;BME280;47692;53.714;11.372;2023-02-10T06:01:43;102602.41;;;1.40;100.00
61786;BME280;47692;53.714;11.372;2023-02-10T06:04:08;102598.22;;;1.42;100.00
61786;BME280;47692;53.714;11.372;2023-02-10T06:06:34;102599.97;;;1.43;100.00
61786;BME280;47692;53.714;11.372;2023-02-10T06:08:59;102600.81;;;1.42;100.00
61786;BME280;47692;53.714;11.372;2023-02-10T06:11:25;102609.41;;;1.42;100.00
61786;BME280;47692;53.714;11.372;2023-02-10T06:13:50;102612.03;;;1.44;100.00
61786;BME280;47692;53.714;11.372;2023-02-10T06:16:15;102613.13;;;1.49;100.00
61786;BME280;47692;53.714;11.372;2023-02-10T06:18:40;102619.75;;;1.44;100.00
61786;BME280;47692;53.714;11.372;2023-02-10T06:21:07;102614.59;;;1.44;100.00
61786;BME280;47692;53.714;11.372;2023-02-10T06:23:34;102619.00;;;1.47;100.00
61786;BME280;47692;53.714;11.372;2023-02-10T06:25:59;102619.91;;;1.47;100.00
61786;BME280;47692;53.714;11.372;2023-02-10T06:28:25;102620.94;;;1.51;100.00
61786;BME280;47692;53.714;11.372;2023-02-10T06:30:51;102623.41;;;1.49;100.00
61786;BME280;47692;53.714;11.372;2023-02-10T06:33:17;102624.38;;;1.51;100.00
61786;BME280;47692;53.714;11.372;2023-02-10T06:35:42;102624.38;;;1.51;100.00
61786;BME280;47692;53.714;11.372;2023-02-10T06:38:08;102622.53;;;1.49;100.00
61786;BME280;47692;53.714;11.372;2023-02-10T06:40:33;102622.53;;;1.49;100.00
61786;BME280;47692;53.714;11.372;2023-02-10T06:42:59;102625.19;;;1.50;100.00
61786;BME280;47692;53.714;11.372;2023-02-10T06:45:26;102631.22;;;1.51;100.00
61786;BME280;47692;53.714;11.372;2023-02-10T06:47:51;102636.28;;;1.49;100.00
61786;BME280;47692;53.714;11.372;2023-02-10T06:50:17;102633.00;;;1.52;100.00
61786;BME280;47692;53.714;11.372;2023-02-10T06:52:43;102637.25;;;1.51;100.00
61786;BME280;47692;53.714;11.372;2023-02-10T06:55:08;102633.72;;;1.49;100.00
61786;BME280;47692;53.714;11.372;2023-02-10T06:57:35;102637.41;;;1.54;100.00
61786;BME280;47692;53.714;11.372;2023-02-10T07:00:03;102643.41;;;1.55;100.00
61786;BME280;47692;53.714;11.372;2023-02-10T07:02:28;102649.31;;;1.52;100.00
61786;BME280;47692;53.714;11.372;2023-02-10T07:04:54;102650.19;;;1.53;100.00
61786;BME280;47692;53.714;11.372;2023-02-10T07:07:19;102649.44;;;1.55;100.00
61786;BME280;47692;53.714;11.372;2023-02-10T07:09:45;102646.75;;;1.52;100.00
61786;BME280;47692;53.714;11.372;2023-02-10T07:12:10;102656.28;;;1.55;100.00
61786;BME280;47692;53.714;11.372;2023-02-10T07:14:35;102658.06;;;1.56;100.00
61786;BME280;47692;53.714;11.372;2023-02-10T07:17:02;102665.03;;;1.58;100.00
61786;BME280;47692;53.714;11.372;2023-02-10T07:19:27;102666.88;;;1.61;100.00
61786;BME280;47692;53.714;11.372;2023-02-10T07:21:52;102671.97;;;1.59;100.00
61786;BME280;47692;53.714;11.372;2023-02-10T07:24:18;102668.56;;;1.60;100.00
61786;BME280;47692;53.714;11.372;2023-02-10T07:26:43;102668.56;;;1.60;100.00
61786;BME280;47692;53.714;11.372;2023-02-10T07:29:09;102672.97;;;1.63;100.00
61786;BME280;47692;53.714;11.372;2023-02-10T07:31:34;102677.38;;;1.66;100.00
61786;BME280;47692;53.714;11.372;2023-02-10T07:34:01;102683.34;;;1.65;100.00
61786;BME280;47692;53.714;11.372;2023-02-10T07:36:27;102684.22;;;1.65;100.00
61786;BME280;47692;53.714;11.372;2023-02-10T07:38:52;102696.34;;;1.68;100.00
61786;BME280;47692;53.714;11.372;2023-02-10T07:41:17;102700.56;;;1.66;100.00
61786;BME280;47692;53.714;11.372;2023-02-10T07:43:42;102693.94;;;1.71;100.00
61786;BME280;47692;53.714;11.372;2023-02-10T07:46:08;102701.66;;;1.71;100.00
61786;BME280;47692;53.714;11.372;2023-02-10T07:48:33;102693.13;;;1.72;100.00
61786;BME280;47692;53.714;11.372;2023-02-10T07:50:58;102698.56;;;1.78;100.00
61786;BME280;47692;53.714;11.372;2023-02-10T07:53:24;102695.00;;;1.76;100.00
61786;BME280;47692;53.714;11.372;2023-02-10T07:55:49;102692.50;;;1.77;100.00
61786;BME280;47692;53.714;11.372;2023-02-10T07:58:14;102695.00;;;1.76;100.00
61786;BME280;47692;53.714;11.372;2023-02-10T08:00:40;102695.16;;;1.79;100.00
61786;BME280;47692;53.714;11.372;2023-02-10T08:03:05;102702.34;;;1.86;100.00
61786;BME280;47692;53.714;11.372;2023-02-10T08:05:31;102714.28;;;1.84;100.00
61786;BME280;47692;53.714;11.372;2023-02-10T08:07:56;102710.06;;;1.86;100.00
61786;BME280;47692;53.714;11.372;2023-02-10T08:10:22;102701.31;;;1.83;100.00
61786;BME280;47692;53.714;11.372;2023-02-10T08:12:47;102700.72;;;1.88;100.00
61786;BME280;47692;53.714;11.372;2023-02-10T08:15:13;102691.38;;;1.90;100.00
61786;BME280;47692;53.714;11.372;2023-02-10T08:17:42;102709.53;;;1.93;100.00
61786;BME280;47692;53.714;11.372;2023-02-10T08:20:08;102698.53;;;1.98;100.00
61786;BME280;47692;53.714;11.372;2023-02-10T08:22:33;102697.72;;;1.99;100.00
61786;BME280;47692;53.714;11.372;2023-02-10T08:24:59;102704.94;;;2.06;100.00
61786;BME280;47692;53.714;11.372;2023-02-10T08:27:25;102702.34;;;2.06;100.00
61786;BME280;47692;53.714;11.372;2023-02-10T08:29:50;102708.47;;;2.08;100.00
61786;BME280;47692;53.714;11.372;2023-02-10T08:32:16;102706.81;;;2.10;100.00
61786;BME280;47692;53.714;11.372;2023-02-10T08:34:45;102707.84;;;2.14;100.00
61786;BME280;47692;53.714;11.372;2023-02-10T08:37:11;102711.31;;;2.14;100.00
61786;BME280;47692;53.714;11.372;2023-02-10T08:39:36;102707.09;;;2.16;100.00
61786;BME280;47692;53.714;11.372;2023-02-10T08:42:02;102705.47;;;2.18;100.00
61786;BME280;47692;53.714;11.372;2023-02-10T08:44:27;102712.50;;;2.22;100.00
61786;BME280;47692;53.714;11.372;2023-02-10T08:46:53;102715.03;;;2.21;100.00
61786;BME280;47692;53.714;11.372;2023-02-10T08:49:18;102717.75;;;2.24;100.00
61786;BME280;47692;53.714;11.372;2023-02-10T08:51:44;102717.66;;;2.22;100.00
61786;BME280;47692;53.714;11.372;2023-02-10T08:54:09;102723.94;;;2.28;100.00
61786;BME280;47692;53.714;11.372;2023-02-10T08:56:34;102718.78;;;2.28;100.00
61786;BME280;47692;53.714;11.372;2023-02-10T08:59:00;102716.91;;;2.25;100.00
61786;BME280;47692;53.714;11.372;2023-02-10T09:01:25;102716.19;;;2.28;100.00
61786;BME280;47692;53.714;11.372;2023-02-10T09:03:51;102713.88;;;2.34;100.00
61786;BME280;47692;53.714;11.372;2023-02-10T09:06:26;102719.69;;;2.30;100.00
61786;BME280;47692;53.714;11.372;2023-02-10T09:08:53;102723.22;;;2.32;100.00
61786;BME280;47692;53.714;11.372;2023-02-10T09:11:20;102726.63;;;2.31;100.00
61786;BME280;47692;53.714;11.372;2023-02-10T09:13:47;102725.00;;;2.33;100.00
61786;BME280;47692;53.714;11.372;2023-02-10T09:16:13;102724.44;;;2.40;100.00
61786;BME280;47692;53.714;11.372;2023-02-10T09:18:38;102734.56;;;2.35;100.00
61786;BME280;47692;53.714;11.372;2023-02-10T09:21:03;102727.69;;;2.36;100.00
61786;BME280;47692;53.714;11.372;2023-02-10T09:23:29;102720.22;;;2.42;100.00
61786;BME280;47692;53.714;11.372;2023-02-10T09:25:56;102718.72;;;2.47;100.00
61786;BME280;47692;53.714;11.372;2023-02-10T09:28:23;102727.28;;;2.46;100.00
61786;BME280;47692;53.714;11.372;2023-02-10T09:30:49;102719.69;;;2.49;100.00
61786;BME280;47692;53.714;11.372;2023-02-10T09:33:15;102734.34;;;2.50;100.00
61786;BME280;47692;53.714;11.372;2023-02-10T09:35:41;102729.25;;;2.52;100.00
61786;BME280;47692;53.714;11.372;2023-02-10T09:38:07;102731.47;;;2.64;100.00
61786;BME280;47692;53.714;11.372;2023-02-10T09:46:03;102740.41;;;2.72;100.00
61786;BME280;47692;53.714;11.372;2023-02-10T09:53:58;102743.53;;;2.65;100.00
61786;BME280;47692;53.714;11.372;2023-02-10T09:56:24;102736.63;;;2.64;100.00
61786;BME280;47692;53.714;11.372;2023-02-10T09:58:53;102731.75;;;2.70;100.00
61786;BME280;47692;53.714;11.372;2023-02-10T10:01:26;102725.31;;;2.81;100.00
61786;BME280;47692;53.714;11.372;2023-02-10T10:06:29;102735.09;;;2.88;100.00
61786;BME280;47692;53.714;11.372;2023-02-10T10:09:03;102720.78;;;2.97;100.00
61786;BME280;47692;53.714;11.372;2023-02-10T10:13:56;102725.44;;;3.05;100.00
61786;BME280;47692;53.714;11.372;2023-02-10T10:30:46;102722.00;;;3.28;100.00
61786;BME280;47692;53.714;11.372;2023-02-10T10:33:20;102727.59;;;3.38;100.00
61786;BME280;47692;53.714;11.372;2023-02-10T10:35:50;102721.34;;;3.54;100.00
61786;BME280;47692;53.714;11.372;2023-02-10T10:38:24;102718.63;;;3.51;100.00
61786;BME280;47692;53.714;11.372;2023-02-10T10:40:53;102712.97;;;3.62;100.00
61786;BME280;47692;53.714;11.372;2023-02-10T10:43:29;102717.69;;;3.72;100.00
61786;BME280;47692;53.714;11.372;2023-02-10T10:46:26;102717.19;;;3.82;100.00
61786;BME280;47692;53.714;11.372;2023-02-10T10:48:50;102726.00;;;3.87;100.00
61786;BME280;47692;53.714;11.372;2023-02-10T10:51:16;102726.00;;;3.87;100.00
61786;BME280;47692;53.714;11.372;2023-02-10T10:53:49;102727.22;;;3.73;100.00
61786;BME280;47692;53.714;11.372;2023-02-10T10:56:36;102728.19;;;3.77;100.00
61786;BME280;47692;53.714;11.372;2023-02-10T10:59:13;102731.28;;;3.68;100.00
61786;BME280;47692;53.714;11.372;2023-02-10T11:01:41;102729.38;;;3.62;100.00
61786;BME280;47692;53.714;11.372;2023-02-10T11:04:16;102738.72;;;3.59;100.00
61786;BME280;47692;53.714;11.372;2023-02-10T11:06:47;102737.41;;;3.47;100.00
61786;BME280;47692;53.714;11.372;2023-02-10T11:11:48;102736.22;;;3.39;100.00
61786;BME280;47692;53.714;11.372;2023-02-10T11:14:17;102732.81;;;3.40;100.00
61786;BME280;47692;53.714;11.372;2023-02-10T11:16:52;102732.81;;;3.40;100.00
61786;BME280;47692;53.714;11.372;2023-02-10T11:19:24;102736.88;;;3.33;100.00
61786;BME280;47692;53.714;11.372;2023-02-10T11:21:50;102730.97;;;3.36;100.00
61786;BME280;47692;53.714;11.372;2023-02-10T11:24:31;102739.47;;;3.33;100.00
61786;BME280;47692;53.714;11.372;2023-02-10T11:27:03;102739.56;;;3.36;100.00
61786;BME280;47692;53.714;11.372;2023-02-10T11:29:31;102731.19;;;3.42;100.00
61786;BME280;47692;53.714;11.372;2023-02-10T11:31:57;102735.97;;;3.33;100.00
61786;BME280;47692;53.714;11.372;2023-02-10T11:34:27;102731.06;;;3.39;100.00
61786;BME280;47692;53.714;11.372;2023-02-10T11:36:56;102730.81;;;3.33;100.00
61786;BME280;47692;53.714;11.372;2023-02-10T11:39:25;102724.31;;;3.20;100.00
61786;BME280;47692;53.714;11.372;2023-02-10T11:41:52;102706.28;;;3.21;100.00
61786;BME280;47692;53.714;11.372;2023-02-10T11:44:30;102714.59;;;3.14;100.00
61786;BME280;47692;53.714;11.372;2023-02-10T11:47:04;102712.97;;;3.16;100.00
61786;BME280;47692;53.714;11.372;2023-02-10T11:49:31;102706.56;;;3.06;100.00
61786;BME280;47692;53.714;11.372;2023-02-10T11:52:01;102706.50;;;3.05;100.00
61786;BME280;47692;53.714;11.372;2023-02-10T11:54:28;102702.25;;;3.07;100.00
61786;BME280;47692;53.714;11.372;2023-02-10T12:00:32;102713.84;;;2.96;100.00
61786;BME280;47692;53.714;11.372;2023-02-10T12:06:03;102714.00;;;2.99;100.00
61786;BME280;47692;53.714;11.372;2023-02-10T12:20:31;102704.03;;;3.08;100.00
61786;BME280;47692;53.714;11.372;2023-02-10T12:26:07;102707.41;;;3.07;100.00
61786;BME280;47692;53.714;11.372;2023-02-10T12:28:40;102695.72;;;3.15;100.00
61786;BME280;47692;53.714;11.372;2023-02-10T12:36:37;102676.59;;;3.55;100.00
61786;BME280;47692;53.714;11.372;2023-02-10T12:39:25;102672.34;;;3.80;100.00
61786;BME280;47692;53.714;11.372;2023-02-10T12:47:55;102652.88;;;4.14;100.00
61786;BME280;47692;53.714;11.372;2023-02-10T12:50:37;102645.72;;;4.07;100.00
61786;BME280;47692;53.714;11.372;2023-02-10T12:53:14;102647.72;;;4.14;100.00
61786;BME280;47692;53.714;11.372;2023-02-10T12:58:44;102632.28;;;4.17;100.00
61786;BME280;47692;53.714;11.372;2023-02-10T13:01:37;102635.25;;;4.04;100.00
61786;BME280;47692;53.714;11.372;2023-02-10T13:04:24;102631.09;;;4.08;100.00
61786;BME280;47692;53.714;11.372;2023-02-10T13:09:47;102628.91;;;3.94;100.00
61786;BME280;47692;53.714;11.372;2023-02-10T13:14:44;102614.22;;;3.93;100.00
61786;BME280;47692;53.714;11.372;2023-02-10T13:17:10;102616.03;;;3.96;100.00
61786;BME280;47692;53.714;11.372;2023-02-10T13:20:02;102617.81;;;3.97;100.00
61786;BME280;47692;53.714;11.372;2023-02-10T13:22:51;102613.25;;;3.90;100.00
61786;BME280;47692;53.714;11.372;2023-02-10T13:30:48;102612.28;;;3.87;100.00
61786;BME280;47692;53.714;11.372;2023-02-10T13:36:33;102605.28;;;3.83;100.00
61786;BME280;47692;53.714;11.372;2023-02-10T13:39:00;102613.84;;;3.82;100.00
61786;BME280;47692;53.714;11.372;2023-02-10T13:41:31;102610.31;;;3.80;100.00
61786;BME280;47692;53.714;11.372;2023-02-10T13:44:24;102616.59;;;3.87;100.00
61786;BME280;47692;53.714;11.372;2023-02-10T13:46:55;102626.81;;;3.84;100.00
61786;BME280;47692;53.714;11.372;2023-02-10T13:49:22;102619.13;;;3.85;100.00
61786;BME280;47692;53.714;11.372;2023-02-10T13:51:49;102621.94;;;3.92;100.00
61786;BME280;47692;53.714;11.372;2023-02-10T13:54:30;102616.94;;;3.98;100.00
61786;BME280;47692;53.714;11.372;2023-02-10T13:56:56;102618.88;;;4.03;100.00
61786;BME280;47692;53.714;11.372;2023-02-10T13:59:23;102609.53;;;4.07;100.00
61786;BME280;47692;53.714;11.372;2023-02-10T14:02:02;102604.56;;;4.13;100.00
61786;BME280;47692;53.714;11.372;2023-02-10T14:04:45;102601.16;;;4.14;100.00
61786;BME280;47692;53.714;11.372;2023-02-10T14:10:45;102587.31;;;4.12;100.00
61786;BME280;47692;53.714;11.372;2023-02-10T14:13:20;102592.03;;;4.24;100.00
61786;BME280;47692;53.714;11.372;2023-02-10T14:18:29;102573.34;;;4.33;100.00
61786;BME280;47692;53.714;11.372;2023-02-10T14:21:07;102572.53;;;4.34;99.98
61786;BME280;47692;53.714;11.372;2023-02-10T14:23:36;102569.19;;;4.38;99.56
61786;BME280;47692;53.714;11.372;2023-02-10T14:26:08;102553.69;;;4.38;99.33
61786;BME280;47692;53.714;11.372;2023-02-10T14:28:41;102558.03;;;4.39;99.50
61786;BME280;47692;53.714;11.372;2023-02-10T14:31:24;102552.03;;;4.40;98.85
61786;BME280;47692;53.714;11.372;2023-02-10T14:33:57;102546.94;;;4.43;98.53
61786;BME280;47692;53.714;11.372;2023-02-10T14:36:23;102534.84;;;4.42;98.03
61786;BME280;47692;53.714;11.372;2023-02-10T14:38:51;102533.19;;;4.44;97.72
61786;BME280;47692;53.714;11.372;2023-02-10T14:41:17;102531.34;;;4.40;97.62